Time;durP1;ratioP1;P1;durP2;ratioP2;P2;SDS_P1;SDS_P2;PMS_P1;PMS_P2;Temp;Humidity;BMP_temperature;BMP_pressure;BME280_temperature;BME280_humidity;BME280_pressure;Samples;Min_cycle;Max_cycle;Signal;HPM_P1;HPM_P2
2023/10/06 00:01:42;;;;;;;39.22;31.45;;;22.50;99.90;;;;;;5063462;28;20456;-64
2023/10/06 00:04:13;;;;;;;37.38;31.40;;;22.10;99.90;;;;;;5050705;28;20095;-63
2023/10/06 00:06:42;;;;;;;34.75;31.08;;;22.40;99.90;;;;;;5067544;28;20067;-64
2023/10/06 00:09:25;;;;;;;39.92;32.30;;;22.10;99.90;;;;;;5051004;28;20048;-65
2023/10/06 00:11:52;;;;;;;37.88;32.65;;;22.00;99.90;;;;;;5048280;28;20048;-65
2023/10/06 00:14:39;;;;;;;41.20;33.10;;;22.00;99.90;;;;;;5048037;28;20044;-65
2023/10/06 00:17:16;;;;;;;36.67;32.65;;;22.30;99.90;;;;;;5059840;28;20040;-65
2023/10/06 00:19:43;;;;;;;40.63;33.78;;;22.00;99.90;;;;;;5066304;28;20067;-65
2023/10/06 00:24:37;;;;;;;40.17;33.60;;;22.40;99.90;;;;;;5067811;28;20048;-65
2023/10/06 00:27:03;;;;;;;37.45;33.28;;;22.00;99.90;;;;;;5050471;28;20051;-65
2023/10/06 00:29:29;;;;;;;36.08;32.40;;;22.60;99.90;;;;;;5066738;28;20109;-65
2023/10/06 00:32:21;;;;;;;37.03;33.10;;;21.90;99.90;;;;;;5066420;28;20040;-65
2023/10/06 00:34:46;;;;;;;39.67;33.35;;;22.30;99.90;;;;;;5068034;28;20076;-65
2023/10/06 00:37:12;;;;;;;38.13;33.10;;;22.00;99.90;;;;;;5067830;28;20592;-65
2023/10/06 00:39:37;;;;;;;38.50;32.42;;;22.40;99.90;;;;;;5047083;28;20525;-65
2023/10/06 00:42:04;;;;;;;42.65;33.88;;;22.20;99.90;;;;;;5047689;28;20048;-65
2023/10/06 00:44:30;;;;;;;39.20;32.97;;;21.90;99.90;;;;;;5054150;28;20040;-65
2023/10/06 00:46:59;;;;;;;42.80;33.97;;;22.50;99.90;;;;;;5067377;28;20410;-65
2023/10/06 00:49:27;;;;;;;37.25;33.25;;;21.90;99.90;;;;;;5067765;28;20388;-65
2023/10/06 00:51:53;;;;;;;39.47;33.95;;;22.30;99.90;;;;;;5066880;28;20053;-65
2023/10/06 00:54:20;;;;;;;42.38;33.88;;;22.50;99.90;;;;;;5066914;28;20052;-64
2023/10/06 00:56:46;;;;;;;36.13;32.53;;;22.20;99.90;;;;;;5056718;28;20393;-65
2023/10/06 00:59:12;;;;;;;36.05;32.20;;;22.60;99.90;;;;;;5047592;28;20045;-65
2023/10/06 01:01:39;;;;;;;36.60;32.78;;;23.80;99.90;;;;;;5047779;28;20266;-65
2023/10/06 01:04:08;;;;;;;39.65;33.03;;;22.00;99.90;;;;;;5048001;28;20052;-65
2023/10/06 01:06:36;;;;;;;36.28;31.77;;;22.30;99.90;;;;;;5048963;28;20041;-65
2023/10/06 01:09:16;;;;;;;35.53;30.08;;;22.00;99.90;;;;;;5047429;28;20502;-65
2023/10/06 01:11:45;;;;;;;33.67;29.92;;;22.50;99.90;;;;;;5055999;28;20069;-65
2023/10/06 01:14:11;;;;;;;33.83;29.00;;;22.30;99.90;;;;;;5049643;28;20124;-65
2023/10/06 01:16:36;;;;;;;34.33;28.48;;;22.40;99.90;;;;;;5050284;28;20091;-65
2023/10/06 01:21:52;;;;;;;33.90;29.13;;;22.10;99.90;;;;;;5059780;28;20040;-64
2023/10/06 01:24:28;;;;;;;37.40;28.30;;;22.30;99.90;;;;;;5066080;28;20040;-65
2023/10/06 01:27:07;;;;;;;36.22;26.35;;;22.20;99.90;;;;;;5058893;28;20080;-64
2023/10/06 01:29:34;;;;;;;33.53;26.27;;;22.60;99.90;;;;;;5060188;28;20415;-64
2023/10/06 01:32:03;;;;;;;34.13;27.25;;;22.30;99.90;;;;;;5060681;28;20111;-64
2023/10/06 01:34:34;;;;;;;32.33;26.77;;;22.80;99.90;;;;;;5058271;28;20437;-64
2023/10/06 01:37:03;;;;;;;33.65;27.33;;;22.30;99.90;;;;;;5060053;28;20410;-64
2023/10/06 01:39:31;;;;;;;29.38;26.15;;;22.60;99.90;;;;;;5057811;28;20094;-64
2023/10/06 01:41:57;;;;;;;31.65;26.50;;;22.60;99.90;;;;;;5065820;28;20059;-64
2023/10/06 01:44:23;;;;;;;31.95;26.73;;;22.30;99.90;;;;;;5062259;28;20410;-64
2023/10/06 01:46:54;;;;;;;28.33;23.95;;;22.30;99.90;;;;;;5053340;28;20049;-64
2023/10/06 01:49:23;;;;;;;31.67;26.83;;;22.60;99.90;;;;;;5053421;28;20049;-64
2023/10/06 01:51:52;;;;;;;30.80;25.00;;;22.60;99.90;;;;;;5063436;28;20045;-65
2023/10/06 01:54:19;;;;;;;32.63;26.85;;;22.60;99.90;;;;;;5066687;28;20063;-64
2023/10/06 01:56:46;;;;;;;29.95;25.30;;;22.40;99.90;;;;;;5065482;28;20491;-64
2023/10/06 01:59:14;;;;;;;31.90;25.92;;;22.70;99.90;;;;;;5066200;28;20056;-65
2023/10/06 02:01:41;;;;;;;32.92;26.35;;;22.70;99.90;;;;;;5065850;28;20107;-64
2023/10/06 02:04:11;;;;;;;30.83;25.50;;;22.30;99.90;;;;;;5066437;28;20381;-64
2023/10/06 02:06:54;;;;;;;30.75;24.55;;;22.40;99.90;;;;;;5059810;28;20045;-64
2023/10/06 02:09:20;;;;;;;33.35;26.20;;;22.30;99.90;;;;;;5070292;28;20051;-64
2023/10/06 02:11:49;;;;;;;33.72;26.08;;;22.50;99.90;;;;;;5069780;28;20498;-64
2023/10/06 02:14:17;;;;;;;30.80;25.83;;;22.60;99.90;;;;;;5062633;28;20096;-64
2023/10/06 02:16:46;;;;;;;34.83;26.75;;;22.30;99.90;;;;;;5062723;28;20411;-64
2023/10/06 02:19:18;;;;;;;36.33;28.23;;;22.30;99.90;;;;;;5070242;28;20041;-64
2023/10/06 02:21:45;;;;;;;34.40;26.35;;;22.30;99.90;;;;;;5070235;28;20083;-64
2023/10/06 02:24:12;;;;;;;38.17;28.35;;;22.60;99.90;;;;;;5050167;28;20148;-64
2023/10/06 02:26:38;;;;;;;38.13;27.15;;;22.30;99.90;;;;;;5050115;28;20049;-64
2023/10/06 02:29:15;;;;;;;34.38;28.10;;;22.50;99.90;;;;;;5069254;28;20066;-64
2023/10/06 02:31:41;;;;;;;38.75;28.02;;;22.40;99.90;;;;;;5064030;28;20041;-64
2023/10/06 02:34:14;;;;;;;34.60;28.35;;;22.40;99.90;;;;;;5049531;28;20084;-64
2023/10/06 02:36:41;;;;;;;38.60;29.77;;;22.60;99.90;;;;;;5049889;28;20513;-65
2023/10/06 02:39:09;;;;;;;35.35;27.42;;;22.60;99.90;;;;;;5068527;28;20048;-64
2023/10/06 02:41:36;;;;;;;35.75;27.33;;;22.60;99.90;;;;;;5067266;28;20044;-64
2023/10/06 02:44:15;;;;;;;37.58;29.35;;;22.60;99.90;;;;;;5063537;28;20056;-64
2023/10/06 02:46:44;;;;;;;38.75;28.25;;;22.30;99.90;;;;;;5053696;28;20044;-64
2023/10/06 02:49:12;;;;;;;36.13;26.38;;;22.60;99.90;;;;;;5049218;28;20045;-64
2023/10/06 02:51:47;;;;;;;31.80;27.10;;;22.30;99.90;;;;;;5056544;28;20043;-64
2023/10/06 02:54:21;;;;;;;38.88;28.13;;;22.40;99.90;;;;;;5049771;28;20060;-65
2023/10/06 02:56:47;;;;;;;36.28;27.60;;;23.00;99.90;;;;;;5064355;28;20056;-65
2023/10/06 02:59:26;;;;;;;35.58;29.00;;;22.90;99.90;;;;;;5068518;28;20044;-65
2023/10/06 03:01:57;;;;;;;40.92;30.52;;;22.70;99.90;;;;;;5065920;28;20047;-64
2023/10/06 03:04:27;;;;;;;37.05;30.65;;;22.60;99.90;;;;;;5048478;28;20432;-64
2023/10/06 03:06:55;;;;;;;42.13;32.80;;;22.30;99.90;;;;;;5051631;28;20044;-64
2023/10/06 03:09:27;;;;;;;44.20;33.45;;;22.20;99.90;;;;;;5055085;28;20033;-65
2023/10/06 03:11:52;;;;;;;44.50;32.25;;;22.40;99.90;;;;;;5065115;28;20051;-65
2023/10/06 03:14:24;;;;;;;41.95;32.88;;;22.40;99.90;;;;;;5046585;28;20526;-64
2023/10/06 03:16:51;;;;;;;43.53;32.17;;;22.30;99.90;;;;;;5048757;28;20041;-65
2023/10/06 03:19:23;;;;;;;45.28;33.35;;;22.30;99.90;;;;;;5052539;28;20503;-65
2023/10/06 03:21:50;;;;;;;43.78;34.35;;;22.70;99.90;;;;;;5067947;28;20098;-64
2023/10/06 03:24:30;;;;;;;47.53;35.05;;;22.20;99.90;;;;;;5051317;28;20044;-65
2023/10/06 03:26:57;;;;;;;44.83;34.45;;;22.80;99.90;;;;;;5049209;28;20048;-64
2023/10/06 03:29:43;;;;;;;43.88;34.70;;;22.80;99.90;;;;;;5068336;28;20048;-64
2023/10/06 03:32:13;;;;;;;56.22;36.47;;;22.20;99.90;;;;;;5063751;28;20056;-64
2023/10/06 03:34:38;;;;;;;44.83;35.00;;;22.60;99.90;;;;;;5065745;28;20044;-65
2023/10/06 03:37:05;;;;;;;43.45;35.47;;;22.50;99.90;;;;;;5052784;28;20036;-64
2023/10/06 03:39:34;;;;;;;46.22;36.53;;;22.10;99.90;;;;;;5062295;28;20076;-64
2023/10/06 03:42:00;;;;;;;46.17;36.47;;;22.10;99.90;;;;;;5053520;28;20052;-64
2023/10/06 03:44:29;;;;;;;49.55;35.53;;;22.80;99.90;;;;;;5059464;28;20479;-64
2023/10/06 03:47:00;;;;;;;46.22;33.97;;;22.10;99.90;;;;;;5049367;28;20082;-64
2023/10/06 03:49:26;;;;;;;43.50;34.63;;;22.80;99.90;;;;;;5061198;28;20087;-64
2023/10/06 03:51:55;;;;;;;47.55;34.70;;;22.10;99.90;;;;;;5058167;28;20458;-64
2023/10/06 03:54:21;;;;;;;43.47;34.33;;;22.60;99.90;;;;;;5064110;28;20064;-64
2023/10/06 03:56:49;;;;;;;49.75;34.83;;;22.80;99.90;;;;;;5068257;28;20609;-64
2023/10/06 03:59:15;;;;;;;50.17;34.78;;;22.50;99.90;;;;;;5068284;28;20093;-65
2023/10/06 04:01:44;;;;;;;49.05;35.80;;;22.00;99.90;;;;;;5056403;28;20053;-64
2023/10/06 04:04:15;;;;;;;48.40;35.40;;;22.20;99.90;;;;;;5059270;28;20950;-64
2023/10/06 04:06:41;;;;;;;42.47;34.63;;;22.10;99.90;;;;;;5066088;28;20126;-64
2023/10/06 04:09:08;;;;;;;44.80;35.03;;;22.80;99.90;;;;;;5049618;28;20045;-65
2023/10/06 04:11:34;;;;;;;50.10;35.25;;;22.30;99.90;;;;;;5063640;28;20039;-64
2023/10/06 04:13:59;;;;;;;49.55;35.83;;;22.50;99.90;;;;;;5067079;28;20048;-64
2023/10/06 04:16:25;;;;;;;44.50;35.65;;;22.00;99.90;;;;;;5063379;28;20032;-64
2023/10/06 04:18:51;;;;;;;53.03;37.67;;;22.40;99.90;;;;;;5068146;28;20409;-65
2023/10/06 04:21:17;;;;;;;48.75;38.13;;;22.60;99.90;;;;;;5059889;28;20044;-64
2023/10/06 04:23:43;;;;;;;53.53;37.05;;;22.00;99.90;;;;;;5051046;28;20036;-64
2023/10/06 04:26:09;;;;;;;49.55;37.83;;;22.60;99.90;;;;;;5054850;28;20045;-64
2023/10/06 04:28:36;;;;;;;49.42;37.25;;;22.60;99.90;;;;;;5048010;28;20056;-65
2023/10/06 04:31:01;;;;;;;47.13;35.33;;;22.60;99.90;;;;;;5053405;28;20041;-65
2023/10/06 04:33:30;;;;;;;43.47;34.35;;;22.40;99.90;;;;;;5067596;28;20041;-65
2023/10/06 04:35:55;;;;;;;44.05;35.63;;;22.60;99.90;;;;;;5057117;28;20089;-64
2023/10/06 04:38:22;;;;;;;39.58;34.15;;;22.60;99.90;;;;;;5050390;28;20075;-64
2023/10/06 04:40:48;;;;;;;47.85;35.17;;;21.80;99.90;;;;;;5050733;28;20616;-65
2023/10/06 04:43:15;;;;;;;49.78;37.00;;;22.80;99.90;;;;;;5066407;28;20124;-64
2023/10/06 04:45:40;;;;;;;47.97;35.65;;;22.80;99.90;;;;;;5067567;28;20074;-65
2023/10/06 04:48:09;;;;;;;45.83;36.30;;;21.90;99.90;;;;;;5066125;28;20487;-64
2023/10/06 04:50:35;;;;;;;56.03;37.78;;;22.80;99.90;;;;;;5067507;28;20608;-64
2023/10/06 04:53:02;;;;;;;50.08;37.35;;;22.20;99.90;;;;;;5048440;28;20049;-64
2023/10/06 04:55:31;;;;;;;53.97;37.30;;;22.00;99.90;;;;;;5054088;28;20101;-64
2023/10/06 04:57:57;;;;;;;49.70;36.35;;;22.30;99.90;;;;;;5052874;28;20106;-64
2023/10/06 05:00:27;;;;;;;44.58;36.30;;;22.80;99.90;;;;;;5047583;28;20407;-65
2023/10/06 05:02:52;;;;;;;48.15;36.03;;;23.00;99.90;;;;;;5057759;28;20048;-65
2023/10/06 05:05:20;;;;;;;49.40;35.92;;;23.40;99.90;;;;;;5050325;28;20041;-65
2023/10/06 05:07:55;;;;;;;50.60;36.08;;;22.40;99.90;;;;;;5047348;28;20124;-65
2023/10/06 05:10:25;;;;;;;47.08;35.58;;;22.90;99.90;;;;;;5046232;28;20556;-65
2023/10/06 05:12:54;;;;;;;50.13;36.25;;;22.20;99.90;;;;;;5064370;28;20052;-65
2023/10/06 05:15:32;;;;;;;46.40;34.22;;;22.20;99.90;;;;;;5051692;28;20037;-64
2023/10/06 05:17:58;;;;;;;52.05;37.20;;;22.90;99.90;;;;;;5056853;28;20494;-65
2023/10/06 05:20:32;;;;;;;44.72;35.40;;;22.10;99.90;;;;;;5067172;28;20049;-65
2023/10/06 05:22:58;;;;;;;42.83;34.70;;;22.10;99.90;;;;;;5066632;28;20455;-65
2023/10/06 05:25:26;;;;;;;48.15;36.75;;;22.60;99.90;;;;;;5064824;28;20106;-65
2023/10/06 05:27:53;;;;;;;46.55;36.60;;;22.20;99.90;;;;;;5053855;28;20047;-65
2023/10/06 05:30:21;;;;;;;45.78;35.97;;;22.10;99.90;;;;;;5065796;28;20541;-64
2023/10/06 05:32:49;;;;;;;47.75;35.58;;;22.80;99.90;;;;;;5062315;28;20094;-65
2023/10/06 05:35:15;;;;;;;43.88;35.70;;;22.50;99.90;;;;;;5067055;28;20502;-65
2023/10/06 05:37:43;;;;;;;51.20;36.00;;;22.40;99.90;;;;;;5062332;28;20044;-65
2023/10/06 05:40:12;;;;;;;48.00;34.88;;;22.10;99.90;;;;;;5061407;28;20045;-66
2023/10/06 05:42:42;;;;;;;44.67;35.00;;;22.90;99.90;;;;;;5061432;28;20525;-65
2023/10/06 05:45:18;;;;;;;55.97;36.58;;;21.90;99.90;;;;;;5056775;28;20041;-65
2023/10/06 05:47:54;;;;;;;49.85;37.75;;;22.80;99.90;;;;;;5059229;28;20052;-65
2023/10/06 05:50:29;;;;;;;46.45;35.17;;;22.80;99.90;;;;;;5055718;28;20115;-65
2023/10/06 05:53:01;;;;;;;44.55;35.40;;;21.90;99.90;;;;;;5058638;28;20063;-64
2023/10/06 05:55:38;;;;;;;46.53;34.72;;;21.70;99.90;;;;;;5059435;28;20155;-65
2023/10/06 05:58:08;;;;;;;55.97;35.25;;;22.90;99.90;;;;;;5061229;28;20048;-65
2023/10/06 06:00:35;;;;;;;53.60;35.10;;;21.70;99.90;;;;;;5048734;28;20045;-65
2023/10/06 06:03:11;;;;;;;61.20;34.40;;;22.90;99.90;;;;;;5056608;28;20101;-67
2023/10/06 06:05:38;;;;;;;50.97;35.13;;;23.00;99.90;;;;;;5063960;28;20044;-65
2023/10/06 06:08:10;;;;;;;51.70;35.20;;;21.80;99.90;;;;;;5058071;28;20051;-65
2023/10/06 06:10:36;;;;;;;51.42;36.15;;;22.90;99.90;;;;;;5064541;28;20032;-65
2023/10/06 06:13:02;;;;;;;50.33;36.13;;;21.80;99.90;;;;;;5058661;28;20036;-66
2023/10/06 06:15:29;;;;;;;48.08;34.85;;;23.00;99.90;;;;;;5060608;28;20469;-66
2023/10/06 06:17:55;;;;;;;53.45;36.17;;;21.70;99.90;;;;;;5056354;28;20049;-66
2023/10/06 06:20:24;;;;;;;53.92;35.92;;;23.10;99.90;;;;;;5058672;28;20052;-66
2023/10/06 06:22:59;;;;;;;49.72;35.72;;;23.10;99.90;;;;;;5059991;28;20036;-66
2023/10/06 06:25:29;;;;;;;50.35;36.72;;;22.60;99.90;;;;;;5054328;28;20110;-66
2023/10/06 06:27:55;;;;;;;45.75;34.28;;;22.30;99.90;;;;;;5042725;28;20048;-66
2023/10/06 06:30:24;;;;;;;49.70;34.50;;;21.70;99.90;;;;;;5062828;28;20032;-66
2023/10/06 06:32:50;;;;;;;51.90;35.63;;;23.10;99.90;;;;;;5057201;28;20048;-66
2023/10/06 06:35:21;;;;;;;52.70;35.20;;;21.90;99.90;;;;;;5062213;28;20048;-66
2023/10/06 06:37:59;;;;;;;53.55;36.13;;;21.70;99.90;;;;;;5063884;28;20056;-66
2023/10/06 06:40:26;;;;;;;55.42;36.22;;;21.80;99.90;;;;;;5060819;28;20465;-66
2023/10/06 06:42:52;;;;;;;53.88;36.58;;;22.00;99.90;;;;;;5052771;28;20750;-66
2023/10/06 06:45:19;;;;;;;52.58;37.60;;;22.80;99.90;;;;;;5056033;28;20143;-66
2023/10/06 06:47:45;;;;;;;50.13;37.88;;;21.70;99.90;;;;;;5056838;28;20086;-66
2023/10/06 06:50:17;;;;;;;56.33;37.00;;;21.70;99.90;;;;;;5057412;28;20160;-66
2023/10/06 06:52:47;;;;;;;51.42;36.85;;;21.80;99.90;;;;;;5060571;28;20062;-66
2023/10/06 06:55:13;;;;;;;53.53;37.08;;;21.70;99.90;;;;;;5055891;28;20072;-66
2023/10/06 06:57:46;;;;;;;52.38;38.05;;;23.30;99.90;;;;;;5064198;28;20052;-66
2023/10/06 07:00:15;;;;;;;49.33;37.45;;;23.40;99.90;;;;;;5056167;28;20460;-66
2023/10/06 07:02:51;;;;;;;48.30;38.70;;;22.90;99.90;;;;;;5060068;28;20037;-66
2023/10/06 07:05:18;;;;;;;56.95;38.67;;;22.70;99.90;;;;;;5059400;28;20136;-67
2023/10/06 07:07:45;;;;;;;51.95;37.55;;;21.70;99.90;;;;;;5059369;28;20064;-67
2023/10/06 07:10:14;;;;;;;52.63;36.50;;;23.20;99.90;;;;;;5060848;28;20039;-66
2023/10/06 07:12:44;;;;;;;53.65;37.92;;;22.70;99.90;;;;;;5058884;28;20037;-66
2023/10/06 07:15:19;;;;;;;59.25;38.75;;;23.20;99.90;;;;;;5058470;28;20048;-64
2023/10/06 07:17:50;;;;;;;50.45;39.63;;;21.70;99.90;;;;;;5054473;28;20033;-66
2023/10/06 07:20:18;;;;;;;64.90;41.17;;;23.50;99.90;;;;;;5052927;28;20507;-66
2023/10/06 07:22:45;;;;;;;59.03;40.53;;;23.60;99.90;;;;;;5060097;28;20067;-67
2023/10/06 07:25:11;;;;;;;50.30;39.33;;;23.40;99.90;;;;;;5041438;28;20064;-66
2023/10/06 07:27:40;;;;;;;53.15;39.00;;;22.40;99.90;;;;;;5052853;28;20055;-66
2023/10/06 07:30:11;;;;;;;51.00;39.15;;;23.90;99.90;;;;;;5055621;28;20102;-67
2023/10/06 07:32:42;;;;;;;57.15;40.13;;;22.30;99.90;;;;;;5053626;28;20556;-66
2023/10/06 07:35:12;;;;;;;52.85;37.58;;;22.40;99.90;;;;;;5060524;28;20067;-66
2023/10/06 07:37:44;;;;;;;55.22;37.92;;;24.00;99.90;;;;;;5053399;28;20109;-66
2023/10/06 07:40:14;;;;;;;51.78;37.90;;;24.00;99.90;;;;;;5057310;28;20450;-66
2023/10/06 07:42:45;;;;;;;48.70;36.83;;;23.90;99.90;;;;;;5055758;28;20384;-66
2023/10/06 07:45:11;;;;;;;49.72;36.17;;;22.60;99.90;;;;;;5059470;28;20091;-67
2023/10/06 07:47:39;;;;;;;60.20;37.83;;;23.00;99.90;;;;;;5052318;28;20501;-66
2023/10/06 07:50:05;;;;;;;50.58;35.90;;;23.20;99.90;;;;;;5057356;28;20119;-66
2023/10/06 07:52:32;;;;;;;45.30;36.72;;;24.00;99.90;;;;;;5057824;28;20086;-67
2023/10/06 07:54:58;;;;;;;50.58;36.65;;;24.00;99.90;;;;;;5059890;28;20044;-66
2023/10/06 07:57:24;;;;;;;49.17;36.22;;;24.40;99.90;;;;;;5057277;28;20139;-66
2023/10/06 07:59:50;;;;;;;48.47;35.00;;;24.10;99.90;;;;;;5055282;28;20099;-66
2023/10/06 08:02:15;;;;;;;50.00;34.90;;;23.10;99.90;;;;;;5055314;28;20045;-67
2023/10/06 08:04:41;;;;;;;52.78;35.63;;;23.70;99.90;;;;;;5060870;28;20079;-68
2023/10/06 08:07:06;;;;;;;51.20;35.28;;;23.40;99.90;;;;;;5057218;28;20471;-68
2023/10/06 08:09:32;;;;;;;45.72;34.33;;;23.80;99.90;;;;;;5053357;28;20049;-68
2023/10/06 08:11:58;;;;;;;54.45;36.72;;;23.10;99.90;;;;;;5060510;28;20769;-68
2023/10/06 08:14:24;;;;;;;53.67;35.65;;;23.90;99.90;;;;;;5057171;28;20179;-67
2023/10/06 08:16:54;;;;;;;51.80;34.88;;;23.70;99.90;;;;;;5057373;28;20061;-68
2023/10/06 08:19:20;;;;;;;59.22;36.28;;;24.20;99.90;;;;;;5054379;28;20050;-65
2023/10/06 08:21:45;;;;;;;51.45;35.13;;;23.90;99.90;;;;;;5048127;28;20036;-66
2023/10/06 08:24:11;;;;;;;50.38;36.63;;;23.10;99.90;;;;;;5054610;28;20052;-65
2023/10/06 08:26:37;;;;;;;53.63;35.38;;;23.40;99.90;;;;;;5051874;28;20045;-65
2023/10/06 08:29:05;;;;;;;52.63;35.47;;;23.40;99.90;;;;;;5057352;28;20048;-64
2023/10/06 08:31:31;;;;;;;50.85;34.53;;;23.70;99.90;;;;;;5060778;28;20044;-65
2023/10/06 08:34:01;;;;;;;48.95;34.63;;;23.60;99.90;;;;;;5046868;28;20108;-64
2023/10/06 08:36:27;;;;;;;51.45;35.97;;;24.00;99.90;;;;;;5053169;28;20044;-65
2023/10/06 08:38:53;;;;;;;54.25;35.70;;;23.30;99.90;;;;;;5054690;28;20044;-64
2023/10/06 08:41:26;;;;;;;52.60;35.53;;;24.50;99.90;;;;;;5061789;28;20083;-64
2023/10/06 08:43:53;;;;;;;48.08;36.53;;;24.00;99.90;;;;;;5060486;28;20051;-64
2023/10/06 08:46:19;;;;;;;50.97;35.42;;;24.10;99.90;;;;;;5054084;28;20119;-65
2023/10/06 08:48:46;;;;;;;50.83;34.45;;;23.40;99.90;;;;;;5057315;28;20155;-64
2023/10/06 08:51:14;;;;;;;48.28;36.15;;;23.40;99.90;;;;;;5061682;28;20576;-64
2023/10/06 08:53:42;;;;;;;55.42;36.92;;;23.70;99.90;;;;;;5055289;28;20095;-66
2023/10/06 08:56:07;;;;;;;51.55;36.00;;;23.60;99.90;;;;;;5052746;28;20690;-64
2023/10/06 08:58:35;;;;;;;46.55;35.05;;;25.60;99.90;;;;;;5062863;28;20041;-63
2023/10/06 09:01:01;;;;;;;51.83;34.95;;;23.80;99.90;;;;;;5057385;28;20044;-66
2023/10/06 09:03:27;;;;;;;50.72;34.28;;;24.90;99.90;;;;;;5052691;28;20032;-65
2023/10/06 09:05:53;;;;;;;47.78;33.72;;;24.80;99.90;;;;;;5054008;28;20072;-65
2023/10/06 09:08:19;;;;;;;46.35;34.10;;;24.50;99.90;;;;;;5059303;28;20092;-63
2023/10/06 09:10:49;;;;;;;56.05;34.28;;;24.80;99.90;;;;;;5057571;28;20053;-64
2023/10/06 09:13:16;;;;;;;47.42;33.08;;;24.40;99.90;;;;;;5061753;28;20103;-64
2023/10/06 09:15:43;;;;;;;47.78;33.03;;;24.80;99.90;;;;;;5061003;28;20040;-64
2023/10/06 09:18:29;;;;;;;49.03;32.65;;;25.40;99.90;;;;;;5063986;28;20040;-65
2023/10/06 09:21:14;;;;;;;54.10;35.03;;;24.80;99.90;;;;;;5060716;28;20122;-64
2023/10/06 09:23:40;;;;;;;52.75;33.08;;;24.20;99.90;;;;;;5063728;28;20048;-63
2023/10/06 09:26:11;;;;;;;51.25;33.42;;;24.20;99.90;;;;;;5062762;28;20476;-64
2023/10/06 09:28:51;;;;;;;54.88;34.95;;;24.70;99.90;;;;;;5059460;28;20142;-64
2023/10/06 09:31:18;;;;;;;56.80;34.00;;;25.40;99.90;;;;;;5059872;28;20406;-65
2023/10/06 09:33:48;;;;;;;49.30;33.75;;;24.70;99.90;;;;;;5060827;28;20447;-64
2023/10/06 09:36:21;;;;;;;51.03;34.63;;;24.70;99.90;;;;;;5059453;28;20060;-65
2023/10/06 09:38:47;;;;;;;50.42;34.83;;;24.20;99.90;;;;;;5065551;28;20033;-64
2023/10/06 09:41:33;;;;;;;53.78;34.67;;;25.00;99.90;;;;;;5058368;28;20072;-65
2023/10/06 09:44:04;;;;;;;56.90;34.63;;;24.70;99.90;;;;;;5060382;28;20128;-64
2023/10/06 09:46:34;;;;;;;56.63;35.50;;;24.40;99.90;;;;;;5060135;28;20059;-65
2023/10/06 09:49:03;;;;;;;52.35;34.15;;;24.50;99.90;;;;;;5064195;28;20040;-65
2023/10/06 09:51:32;;;;;;;51.05;33.33;;;25.80;99.90;;;;;;5059393;28;20061;-64
2023/10/06 09:53:58;;;;;;;47.13;32.35;;;24.80;99.90;;;;;;5059252;28;21502;-65
2023/10/06 09:56:24;;;;;;;46.63;32.38;;;25.10;99.90;;;;;;5057812;28;20040;-64
2023/10/06 09:58:51;;;;;;;49.72;33.03;;;25.20;99.90;;;;;;5060862;28;20033;-64
2023/10/06 10:01:20;;;;;;;53.22;32.70;;;24.90;99.90;;;;;;5063822;28;20044;-65
2023/10/06 10:03:48;;;;;;;47.20;30.40;;;25.00;99.90;;;;;;5063186;28;20573;-64
2023/10/06 10:06:16;;;;;;;42.13;29.85;;;25.40;99.90;;;;;;5062263;28;20359;-66
2023/10/06 10:08:42;;;;;;;47.85;30.33;;;25.70;99.90;;;;;;5059612;28;20460;-67
2023/10/06 10:11:28;;;;;;;46.22;30.30;;;25.10;99.90;;;;;;5063464;28;20115;-67
2023/10/06 10:14:31;;;;;;;46.97;30.90;;;25.40;99.90;;;;;;5062645;28;20126;-66
2023/10/06 10:17:18;;;;;;;44.78;31.38;;;25.40;99.90;;;;;;5046451;28;20057;-66
2023/10/06 10:19:46;;;;;;;46.08;31.40;;;25.10;99.90;;;;;;5064201;28;20055;-66
2023/10/06 10:22:13;;;;;;;43.47;29.33;;;25.50;99.90;;;;;;5057293;28;20040;-66
2023/10/06 10:24:40;;;;;;;47.92;31.60;;;24.70;99.90;;;;;;5062274;28;20082;-66
2023/10/06 10:27:13;;;;;;;50.10;31.88;;;25.20;99.90;;;;;;5055818;28;20045;-67
2023/10/06 10:29:41;;;;;;;48.78;30.92;;;25.30;99.90;;;;;;5059653;28;20076;-66
2023/10/06 10:32:23;;;;;;;48.53;30.67;;;24.70;99.90;;;;;;5057651;28;20535;-66
2023/10/06 10:35:25;;;;;;;44.67;29.17;;;25.30;99.90;;;;;;5054245;28;20751;-66
2023/10/06 10:37:59;;;;;;;42.90;29.80;;;24.90;99.90;;;;;;5058722;28;20553;-67
2023/10/06 10:40:26;;;;;;;47.75;30.10;;;25.10;99.90;;;;;;5058113;28;20047;-66
2023/10/06 10:43:05;;;;;;;43.97;30.33;;;25.20;99.90;;;;;;5061561;28;20048;-66
2023/10/06 10:45:38;;;;;;;32.80;25.30;;;25.60;99.90;;;;;;5039853;28;20115;-67
2023/10/06 10:48:13;;;;;;;47.88;30.08;;;25.20;99.90;;;;;;5063885;28;20388;-66
2023/10/06 10:51:00;;;;;;;40.95;29.92;;;25.10;99.90;;;;;;5055936;28;20049;-66
2023/10/06 10:53:43;;;;;;;48.65;28.70;;;25.40;99.90;;;;;;5058265;28;20040;-66
2023/10/06 10:56:34;;;;;;;46.05;29.90;;;25.60;99.90;;;;;;5058544;28;20044;-66
2023/10/06 10:59:00;;;;;;;54.67;29.27;;;25.20;99.90;;;;;;5057837;28;20032;-66
2023/10/06 11:01:37;;;;;;;47.08;29.45;;;25.40;99.90;;;;;;5056728;28;20032;-66
2023/10/06 11:04:18;;;;;;;42.42;28.77;;;25.40;99.90;;;;;;5056475;28;20091;-67
2023/10/06 11:06:48;;;;;;;50.35;28.90;;;25.60;99.90;;;;;;5059768;28;20045;-67
2023/10/06 11:09:26;;;;;;;53.92;30.50;;;25.70;99.90;;;;;;5059655;28;20143;-66
2023/10/06 11:11:56;;;;;;;42.15;29.92;;;25.50;99.90;;;;;;5060389;28;20041;-68
2023/10/06 11:14:27;;;;;;;45.40;29.17;;;25.60;99.90;;;;;;5056734;28;20036;-67
2023/10/06 11:17:02;;;;;;;44.92;29.30;;;25.40;99.90;;;;;;5056912;28;20449;-66
2023/10/06 11:19:29;;;;;;;54.43;31.43;;;25.60;99.90;;;;;;5059529;28;20094;-67
2023/10/06 11:22:07;;;;;;;43.15;29.52;;;25.60;99.90;;;;;;5056573;28;20544;-68
2023/10/06 11:24:33;;;;;;;50.17;30.77;;;25.50;99.90;;;;;;5058489;28;20115;-67
2023/10/06 11:27:11;;;;;;;47.55;30.52;;;25.40;99.90;;;;;;5054613;28;20052;-68
2023/10/06 11:29:37;;;;;;;51.17;30.80;;;25.30;99.90;;;;;;5058311;28;20032;-68
2023/10/06 11:32:02;;;;;;;52.35;31.48;;;25.30;99.90;;;;;;5056039;28;20048;-66
2023/10/06 11:34:28;;;;;;;50.08;30.10;;;25.20;99.90;;;;;;5061281;28;20040;-68
2023/10/06 11:36:58;;;;;;;42.45;29.98;;;25.30;99.90;;;;;;5063854;28;20432;-68
2023/10/06 11:39:29;;;;;;;42.42;29.77;;;26.00;99.90;;;;;;5060279;28;20079;-67
2023/10/06 11:42:25;;;;;;;51.40;30.67;;;25.80;99.90;;;;;;5061379;28;20051;-67
2023/10/06 11:44:52;;;;;;;50.60;31.80;;;25.50;99.90;;;;;;5059941;28;21633;-68
2023/10/06 11:47:39;;;;;;;46.78;30.70;;;25.80;99.90;;;;;;5063622;28;21418;-67
2023/10/06 11:50:05;;;;;;;48.22;30.73;;;25.60;99.90;;;;;;5060918;28;20052;-67
2023/10/06 11:52:32;;;;;;;45.85;29.65;;;25.30;99.90;;;;;;5064092;28;20498;-68
2023/10/06 11:54:58;;;;;;;58.75;32.60;;;25.50;99.90;;;;;;5059683;28;20446;-68
2023/10/06 11:57:47;;;;;;;51.05;30.92;;;25.30;99.90;;;;;;5060776;28;20102;-68
2023/10/06 12:00:19;;;;;;;49.95;30.52;;;25.40;99.90;;;;;;5060392;28;20040;-68
2023/10/06 12:02:53;;;;;;;58.08;32.83;;;25.40;99.90;;;;;;5061710;28;20135;-68
2023/10/06 12:05:21;;;;;;;54.47;33.45;;;25.50;99.90;;;;;;5058857;28;20174;-67
2023/10/06 12:07:47;;;;;;;47.65;32.58;;;25.50;99.90;;;;;;5060798;28;20517;-67
2023/10/06 12:10:17;;;;;;;47.70;32.17;;;25.60;99.90;;;;;;5060190;28;20044;-67
2023/10/06 12:12:45;;;;;;;55.70;32.72;;;25.10;99.90;;;;;;5053713;28;20415;-67
2023/10/06 12:15:13;;;;;;;48.30;31.70;;;25.20;99.90;;;;;;5053473;28;20732;-68
2023/10/06 12:17:39;;;;;;;54.78;33.40;;;25.40;99.90;;;;;;5062062;28;20131;-67
2023/10/06 12:20:08;;;;;;;46.67;31.10;;;25.20;99.90;;;;;;5064908;28;20489;-69
2023/10/06 12:22:33;;;;;;;54.15;31.98;;;25.30;99.90;;;;;;5055129;28;20145;-67
2023/10/06 12:24:59;;;;;;;51.55;31.38;;;25.40;99.90;;;;;;5057184;28;20079;-66
2023/10/06 12:27:27;;;;;;;52.15;32.72;;;25.00;99.90;;;;;;5059602;28;20036;-67
2023/10/06 12:29:55;;;;;;;51.78;33.47;;;25.00;99.90;;;;;;5060594;28;20049;-64
2023/10/06 12:32:21;;;;;;;51.90;32.85;;;25.00;99.90;;;;;;5060559;28;20611;-65
2023/10/06 12:34:48;;;;;;;50.08;31.63;;;25.40;99.90;;;;;;5059187;28;20115;-64
2023/10/06 12:37:15;;;;;;;51.45;31.38;;;25.00;99.90;;;;;;5054116;28;20037;-64
2023/10/06 12:39:41;;;;;;;44.95;29.77;;;25.40;99.90;;;;;;5059446;28;20040;-64
2023/10/06 12:42:07;;;;;;;47.90;29.80;;;25.30;99.90;;;;;;5054108;28;20041;-64
2023/10/06 12:44:39;;;;;;;57.25;31.45;;;25.40;99.90;;;;;;5052338;28;20096;-64
2023/10/06 12:47:10;;;;;;;55.03;31.40;;;25.40;99.90;;;;;;5051800;28;20190;-65